Hoedspruit Air Force Base Airport

Airport
ICAO code: 
FAHS
IATA Code: 
HDS
Summary
ICAO Region: 
AFI
Territory: 
Location: 
, Limpopo
Serving: 
Hoedspruit
Elevation: 
1743 ft
Coordinates: 
Aerial View: 
24° 22' 7.111" S, 31° 2' 55.478" E
Metar
Observation
FAHS 291800Z AUTO 18005KT //// // ////// 29/17 Q1014
Station
Hoedspruit
Date/Time
2021-11-29 18:00:00
Wind direction
180°
Wind speed
05 kts
Lowest cloud amount
n/a
Temperature
29°C
Dew point
17°C
Humidity
48%
QNH
1014 hPa
Weather condition
n/a

Runways

Designator Length Width Surface Rops
9/27 2115 27 ASP No/No
18/36 3991 46 ASP No/No
Airport map: 
Aerial View: 

SKYbrary Partners:

Safety knowledge contributed by: